| time (UTC) | temp F | wind direction | speed MPH | gust MPH | rain 1hr in | rain 24hr in | rain mn in | humidity % | barometer mb |
| 20260507012614 | 47 | 309 | 0.0 | 2.0 | 0.00 | 0.00 | 0.00 | 85 | 1014.0 |
| 20260507011612 | 47 | 0 | 0.0 | 2.0 | 0.00 | 0.00 | 0.00 | 85 | 1013.9 |
| 20260507010609 | 47 | 7 | 1.0 | 4.0 | 0.00 | 0.00 | 0.00 | 85 | 1014.0 |
| 20260507005606 | 47 | 342 | 1.0 | 4.0 | 0.00 | 0.00 | 0.00 | 85 | 1013.8 |
| 20260507004604 | 47 | 0 | 1.0 | 4.0 | 0.00 | 0.00 | 0.00 | 85 | 1013.7 |
| 20260507003601 | 48 | 45 | 0.0 | 2.0 | 0.00 | 0.00 | 0.00 | 85 | 1013.9 |
| 20260507002559 | 48 | 352 | 0.0 | 2.0 | 0.00 | 0.00 | 0.00 | 85 | 1013.7 |
| 20260507001556 | 48 | 315 | 0.0 | 2.0 | 0.00 | 0.00 | 0.00 | 85 | 1013.7 |
| 20260507000554 | 48 | 0.0 | 2.0 | 0.00 | 0.00 | 0.00 | 85 | 1013.7 | |
| 20260506235551 | 48 | 349 | 0.0 | 4.0 | 0.00 | 0.00 | 0.00 | 85 | 1013.6 |
| 20260506234548 | 48 | 342 | 1.0 | 4.0 | 0.00 | 0.00 | 0.00 | 85 | 1013.7 |
| 20260506233546 | 48 | 330 | 0.0 | 2.0 | 0.00 | 0.00 | 0.00 | 85 | 1013.5 |
| 20260506232543 | 48 | 0.0 | 2.0 | 0.00 | 0.00 | 0.00 | 84 | 1013.5 | |
| 20260506231541 | 48 | 0.0 | 2.0 | 0.00 | 0.00 | 0.00 | 83 | 1013.4 | |
| 20260506230538 | 49 | 0 | 0.0 | 2.0 | 0.00 | 0.00 | 0.00 | 83 | 1013.4 |
| 20260506225536 | 49 | 338 | 1.0 | 2.0 | 0.00 | 0.00 | 0.00 | 82 | 1013.3 |
| 20260506224533 | 49 | 314 | 1.0 | 2.0 | 0.00 | 0.00 | 0.00 | 82 | 1013.3 |
| 20260506223530 | 49 | 0.0 | 2.0 | 0.00 | 0.00 | 0.00 | 82 | 1013.3 | |
| 20260506222528 | 49 | 0 | 0.0 | 4.0 | 0.00 | 0.00 | 0.00 | 83 | 1013.2 |
| 20260506221525 | 49 | 0.0 | 0.0 | 0.00 | 0.00 | 0.00 | 83 | 1013.3 | |
| 20260506220523 | 49 | 23 | 0.0 | 2.0 | 0.00 | 0.00 | 0.00 | 83 | 1013.3 |
| 20260506215520 | 49 | 320 | 0.0 | 4.0 | 0.00 | 0.00 | 0.00 | 83 | 1013.2 |
| 20260506214518 | 49 | 16 | 1.0 | 2.0 | 0.00 | 0.00 | 0.00 | 84 | 1013.2 |
| 20260506213515 | 49 | 338 | 0.0 | 2.0 | 0.00 | 0.00 | 0.00 | 85 | 1013.1 |
| 20260506212613 | 48 | 343 | 0.0 | 2.0 | 0.00 | 0.00 | 0.00 | 86 | 1013.2 |
| 20260506211610 | 48 | 315 | 0.0 | 2.0 | 0.00 | 0.00 | 0.00 | 86 | 1013.2 |
| 20260506210608 | 48 | 338 | 0.0 | 2.0 | 0.00 | 0.00 | 0.00 | 86 | 1013.2 |
| 20260506205605 | 48 | 344 | 1.0 | 4.0 | 0.00 | 0.00 | 0.00 | 86 | 1013.1 |
| 20260506204602 | 48 | 315 | 0.0 | 2.0 | 0.00 | 0.00 | 0.00 | 86 | 1013.1 |
| 20260506203600 | 48 | 0.0 | 0.0 | 0.00 | 0.00 | 0.00 | 85 | 1013.1 | |
| 20260506202557 | 48 | 315 | 0.0 | 2.0 | 0.00 | 0.00 | 0.00 | 85 | 1013.1 |
| 20260506201555 | 48 | 0.0 | 0.0 | 0.00 | 0.00 | 0.00 | 84 | 1012.9 | |
| 20260506200552 | 48 | 0.0 | 0.0 | 0.00 | 0.00 | 0.00 | 83 | 1012.8 | |
| 20260506195550 | 48 | 0.0 | 0.0 | 0.00 | 0.00 | 0.00 | 82 | 1012.7 | |
| 20260506194547 | 49 | 0.0 | 0.0 | 0.00 | 0.00 | 0.00 | 81 | 1012.6 | |
| 20260506193544 | 49 | 23 | 1.0 | 4.0 | 0.00 | 0.00 | 0.00 | 81 | 1012.6 |
| 20260506192542 | 49 | 23 | 1.0 | 4.0 | 0.00 | 0.00 | 0.00 | 81 | 1012.4 |
| 20260506191539 | 0 | 0.0 | 0.0 | 0.00 | 0.00 | 0.00 | 1012.4 | ||
| 20260506190537 | 49 | 0.0 | 2.0 | 0.00 | 0.00 | 0.00 | 80 | 1012.2 | |
| 20260506185534 | 49 | 14 | 2.0 | 4.0 | 0.00 | 0.00 | 0.00 | 79 | 1012.1 |
| 20260506184532 | 49 | 6 | 1.0 | 4.0 | 0.00 | 0.00 | 0.00 | 79 | 1012.0 |
| 20260506183529 | 49 | 31 | 2.0 | 6.0 | 0.00 | 0.00 | 0.00 | 80 | 1012.1 |
| 20260506182527 | 49 | 23 | 4.0 | 7.0 | 0.00 | 0.00 | 0.00 | 80 | 1011.9 |
| 20260506181524 | 49 | 20 | 3.0 | 6.0 | 0.00 | 0.00 | 0.00 | 80 | 1011.8 |
| 20260506180521 | 49 | 29 | 3.0 | 9.0 | 0.00 | 0.00 | 0.00 | 80 | 1011.7 |
| 20260506175519 | 49 | 37 | 6.0 | 14.0 | 0.00 | 0.00 | 0.00 | 79 | 1011.5 |
| 20260506174516 | 49 | 41 | 5.0 | 14.0 | 0.00 | 0.00 | 0.00 | 81 | 1011.4 |
| 20260506173614 | 49 | 29 | 5.0 | 11.0 | 0.00 | 0.00 | 0.00 | 82 | 1011.3 |
| 20260506172611 | 49 | 31 | 3.0 | 7.0 | 0.00 | 0.00 | 0.00 | 84 | 1011.1 |
| 20260506171609 | 49 | 48 | 5.0 | 11.0 | 0.00 | 0.00 | 0.00 | 85 | 1011.2 |
| 20260506170606 | 49 | 21 | 3.0 | 11.0 | 0.00 | 0.00 | 0.00 | 86 | 1011.1 |
| 20260506165604 | 49 | 4 | 1.0 | 6.0 | 0.00 | 0.00 | 0.00 | 87 | 1011.0 |
| 20260506164601 | 49 | 13 | 2.0 | 7.0 | 0.00 | 0.00 | 0.00 | 87 | 1011.1 |
| 20260506163558 | 49 | 11 | 1.0 | 2.0 | 0.00 | 0.00 | 0.00 | 89 | 1011.0 |
| 20260506162556 | 48 | 29 | 2.0 | 6.0 | 0.00 | 0.00 | 0.00 | 90 | 1010.9 |
| 20260506161553 | 48 | 19 | 1.0 | 4.0 | 0.00 | 0.00 | 0.00 | 90 | 1010.9 |
| 20260506160551 | 48 | 0 | 3.0 | 8.0 | 0.00 | 0.00 | 0.00 | 89 | 1010.9 |
| 20260506155548 | 49 | 0 | 1.0 | 4.0 | 0.00 | 0.00 | 0.00 | 88 | 1010.9 |
| 20260506154546 | 49 | 11 | 2.0 | 9.0 | 0.00 | 0.00 | 0.00 | 87 | 1010.9 |
| 20260506153543 | 49 | 349 | 1.0 | 4.0 | 0.00 | 0.00 | 0.00 | 87 | 1010.9 |
| 20260506152540 | 49 | 16 | 1.0 | 6.0 | 0.00 | 0.00 | 0.00 | 87 | 1010.9 |
| 20260506151538 | 49 | 12 | 3.0 | 9.0 | 0.00 | 0.00 | 0.00 | 88 | 1010.8 |
| 20260506150535 | 49 | 49 | 4.0 | 11.0 | 0.00 | 0.00 | 0.00 | 88 | 1010.7 |
| 20260506145533 | 48 | 10 | 3.0 | 9.0 | 0.00 | 0.00 | 0.00 | 89 | 1010.6 |
| 20260506144530 | 48 | 21 | 3.0 | 9.0 | 0.00 | 0.00 | 0.00 | 91 | 1010.5 |
| 20260506143528 | 48 | 10 | 1.0 | 4.0 | 0.00 | 0.00 | 0.00 | 91 | 1010.6 |
| 20260506142525 | 48 | 25 | 2.0 | 6.0 | 0.00 | 0.00 | 0.00 | 91 | 1010.5 |
| 20260506141523 | 48 | 14 | 1.0 | 4.0 | 0.00 | 0.00 | 0.00 | 91 | 1010.5 |
| 20260506140520 | 48 | 10 | 2.0 | 7.0 | 0.00 | 0.00 | 0.00 | 91 | 1010.6 |
| 20260506135517 | 48 | 0 | 2.0 | 6.0 | 0.00 | 0.00 | 0.00 | 92 | 1010.5 |
| 20260506134615 | 48 | 1 | 1.0 | 4.0 | 0.00 | 0.00 | 0.00 | 92 | 1010.4 |
| 20260506133612 | 48 | 13 | 1.0 | 6.0 | 0.00 | 0.00 | 0.00 | 91 | 1010.6 |
| 20260506132610 | 48 | 16 | 2.0 | 8.0 | 0.00 | 0.00 | 0.00 | 91 | 1010.4 |
| 20260506131607 | 48 | 341 | 2.0 | 7.0 | 0.00 | 0.00 | 0.00 | 91 | 1010.4 |
| 20260506130604 | 48 | 13 | 2.0 | 8.0 | 0.00 | 0.00 | 0.00 | 90 | 1010.3 |
| 20260506125602 | 48 | 14 | 3.0 | 6.0 | 0.00 | 0.00 | 0.00 | 90 | 1010.2 |
| 20260506124559 | 48 | 26 | 3.0 | 7.0 | 0.00 | 0.00 | 0.00 | 91 | 1010.2 |
| 20260506123618 | 48 | 347 | 4.0 | 8.0 | 0.00 | 0.00 | 0.00 | 91 | 1010.2 |
| 20260506122554 | 48 | 27 | 2.0 | 7.0 | 0.00 | 0.00 | 0.00 | 91 | 1010.1 |
| 20260506121552 | 48 | 21 | 3.0 | 7.0 | 0.00 | 0.00 | 0.00 | 90 | 1010.1 |
| 20260506120549 | 48 | 16 | 4.0 | 11.0 | 0.00 | 0.00 | 0.00 | 90 | 1010.0 |
| 20260506115546 | 48 | 21 | 5.0 | 11.0 | 0.00 | 0.00 | 0.00 | 90 | 1010.0 |
| 20260506114544 | 48 | 8 | 6.0 | 16.0 | 0.00 | 0.00 | 0.00 | 91 | 1009.8 |
| 20260506113541 | 48 | 12 | 3.0 | 7.0 | 0.00 | 0.00 | 0.00 | 91 | 1009.9 |
| 20260506112539 | 48 | 18 | 3.0 | 8.0 | 0.00 | 0.00 | 0.00 | 90 | 1009.8 |
| 20260506111536 | 47 | 19 | 6.0 | 13.0 | 0.00 | 0.00 | 0.00 | 90 | 1009.8 |
| 20260506110534 | 47 | 29 | 6.0 | 13.0 | 0.00 | 0.00 | 0.00 | 90 | 1009.9 |
| 20260506105531 | 47 | 42 | 5.0 | 11.0 | 0.00 | 0.00 | 0.00 | 90 | 1009.8 |
| 20260506104529 | 47 | 41 | 5.0 | 14.0 | 0.00 | 0.00 | 0.00 | 90 | 1009.8 |
| 20260506103526 | 47 | 26 | 2.0 | 9.0 | 0.00 | 0.00 | 0.00 | 90 | 1009.8 |
| 20260506102523 | 47 | 15 | 3.0 | 9.0 | 0.00 | 0.00 | 0.00 | 90 | 1009.6 |
| 20260506101521 | 47 | 359 | 4.0 | 8.0 | 0.00 | 0.00 | 0.00 | 90 | 1009.5 |
| 20260506100518 | 47 | 19 | 5.0 | 11.0 | 0.00 | 0.00 | 0.00 | 90 | 1009.4 |
| 20260506095516 | 47 | 34 | 5.0 | 13.0 | 0.00 | 0.00 | 0.00 | 91 | 1009.4 |
| 20260506094613 | 47 | 19 | 5.0 | 11.0 | 0.00 | 0.00 | 0.00 | 91 | 1009.3 |
| 20260506093611 | 46 | 24 | 4.0 | 11.0 | 0.00 | 0.00 | 0.00 | 91 | 1009.3 |
| 20260506092608 | 46 | 53 | 4.0 | 13.0 | 0.00 | 0.00 | 0.00 | 91 | 1009.3 |
| 20260506091606 | 46 | 29 | 4.0 | 13.0 | 0.00 | 0.00 | 0.00 | 92 | 1009.2 |
| 20260506090603 | 46 | 43 | 5.0 | 15.0 | 0.00 | 0.00 | 0.00 | 93 | 1009.1 |
| 20260506085600 | 46 | 26 | 5.0 | 15.0 | 0.00 | 0.00 | 0.00 | 94 | 1009.1 |
| 20260506084557 | 46 | 4 | 4.0 | 8.0 | 0.00 | 0.00 | 0.00 | 94 | 1009.0 |
| 20260506083555 | 46 | 30 | 7.0 | 16.0 | 0.00 | 0.00 | 0.00 | 95 | 1009.0 |
| 20260506082552 | 46 | 359 | 6.0 | 15.0 | 0.00 | 0.00 | 0.00 | 95 | 1008.9 |
| 20260506081550 | 47 | 22 | 4.0 | 11.0 | 0.00 | 0.00 | 0.00 | 95 | 1008.9 |
| 20260506080547 | 47 | 15 | 3.0 | 11.0 | 0.00 | 0.00 | 0.00 | 95 | 1008.8 |
| 20260506072537 | 48 | 15 | 4.0 | 11.0 | 0.00 | 0.00 | 0.00 | 96 | 1008.5 |
| 20260506071534 | 48 | 12 | 3.0 | 7.0 | 0.00 | 0.00 | 0.00 | 96 | 1008.4 |
| 20260506070531 | 48 | 4 | 1.0 | 6.0 | 0.00 | 0.00 | 0.00 | 96 | 1008.4 |
| 20260506061519 | 47 | 2 | 1.0 | 9.0 | 0.00 | 0.00 | 0.00 | 96 | 1008.2 |
| 20260506060516 | 47 | 5 | 1.0 | 4.0 | 0.00 | 0.00 | 0.00 | 96 | 1008.2 |
| 20260506050601 | 47 | 19 | 2.0 | 7.0 | 0.00 | 0.00 | 0.00 | 95 | 1008.2 |
| 20260506044556 | 47 | 9 | 2.0 | 9.0 | 0.00 | 0.00 | 0.00 | 96 | 1008.1 |
| 20260506043553 | 47 | 14 | 1.0 | 4.0 | 0.00 | 0.00 | 0.00 | 95 | 1008.1 |
| 20260506042551 | 48 | 358 | 3.0 | 9.0 | 0.00 | 0.00 | 0.00 | 95 | 1008.1 |
| 20260506041548 | 48 | 7 | 2.0 | 4.0 | 0.00 | 0.00 | 0.00 | 95 | 1008.1 |
| 20260506040545 | 48 | 5 | 2.0 | 7.0 | 0.00 | 0.00 | 0.00 | 95 | 1008.1 |
| 20260506035543 | 48 | 343 | 2.0 | 7.0 | 0.00 | 0.00 | 0.00 | 95 | 1008.1 |
| 20260506034540 | 48 | 17 | 2.0 | 8.0 | 0.00 | 0.00 | 0.00 | 95 | 1008.1 |
| 20260506033538 | 48 | 12 | 2.0 | 8.0 | 0.00 | 0.00 | 0.00 | 95 | 1008.1 |
| 20260506032535 | 48 | 38 | 2.0 | 6.0 | 0.00 | 0.00 | 0.00 | 95 | 1008.2 |
| 20260506031532 | 48 | 15 | 3.0 | 11.0 | 0.00 | 0.00 | 0.00 | 95 | 1008.3 |
| 20260506030530 | 48 | 23 | 3.0 | 11.0 | 0.00 | 0.00 | 0.00 | 95 | 1008.4 |
| 20260506025527 | 48 | 4 | 3.0 | 8.0 | 0.00 | 0.00 | 0.00 | 95 | 1008.4 |
| 20260506024525 | 48 | 352 | 2.0 | 6.0 | 0.00 | 0.00 | 0.00 | 95 | 1008.4 |
| 20260506023522 | 48 | 10 | 2.0 | 8.0 | 0.00 | 0.00 | 0.00 | 95 | 1008.4 |
| 20260506022520 | 48 | 4 | 3.0 | 8.0 | 0.00 | 0.00 | 0.00 | 95 | 1008.5 |
| 20260506021517 | 48 | 23 | 3.0 | 7.0 | 0.00 | 0.00 | 0.00 | 95 | 1008.5 |
| 20260506020515 | 48 | 10 | 3.0 | 8.0 | 0.00 | 0.00 | 0.00 | 95 | 1008.6 |
| 20260506015612 | 48 | 26 | 3.0 | 8.0 | 0.00 | 0.00 | 0.00 | 95 | 1008.7 |
| 20260506014610 | 48 | 37 | 3.0 | 9.0 | 0.00 | 0.00 | 0.00 | 95 | 1008.7 |
| 20260506013607 | 48 | 355 | 2.0 | 9.0 | 0.00 | 0.00 | 0.00 | 95 | 1008.7 |